sensor_id;sensor_type;location;lat;lon;timestamp;P1;durP1;ratioP1;P2;durP2;ratioP2
14933;SDS011;7560;51.364;12.384;2022-12-07T00:00:43;12.90;;;7.45;;
14933;SDS011;7560;51.364;12.384;2022-12-07T00:05:45;13.05;;;7.03;;
14933;SDS011;7560;51.364;12.384;2022-12-07T00:10:47;13.95;;;7.25;;
14933;SDS011;7560;51.364;12.384;2022-12-07T00:15:48;13.48;;;7.18;;
14933;SDS011;7560;51.364;12.384;2022-12-07T00:20:50;14.20;;;7.15;;
14933;SDS011;7560;51.364;12.384;2022-12-07T00:25:52;15.05;;;7.57;;
14933;SDS011;7560;51.364;12.384;2022-12-07T00:30:59;13.13;;;7.65;;
14933;SDS011;7560;51.364;12.384;2022-12-07T00:36:03;14.05;;;6.78;;
14933;SDS011;7560;51.364;12.384;2022-12-07T00:41:11;14.48;;;7.90;;
14933;SDS011;7560;51.364;12.384;2022-12-07T00:46:14;15.55;;;7.82;;
14933;SDS011;7560;51.364;12.384;2022-12-07T00:51:18;14.88;;;7.90;;
14933;SDS011;7560;51.364;12.384;2022-12-07T00:56:22;18.67;;;9.07;;
14933;SDS011;7560;51.364;12.384;2022-12-07T01:01:26;18.65;;;9.18;;
14933;SDS011;7560;51.364;12.384;2022-12-07T01:06:30;17.63;;;8.75;;
14933;SDS011;7560;51.364;12.384;2022-12-07T01:11:32;17.60;;;9.68;;
14933;SDS011;7560;51.364;12.384;2022-12-07T01:16:34;18.23;;;9.02;;
14933;SDS011;7560;51.364;12.384;2022-12-07T01:21:36;19.42;;;9.02;;
14933;SDS011;7560;51.364;12.384;2022-12-07T01:26:39;17.15;;;9.10;;
14933;SDS011;7560;51.364;12.384;2022-12-07T01:31:41;16.40;;;8.90;;
14933;SDS011;7560;51.364;12.384;2022-12-07T01:36:42;20.27;;;9.80;;
14933;SDS011;7560;51.364;12.384;2022-12-07T01:41:44;16.75;;;9.25;;
14933;SDS011;7560;51.364;12.384;2022-12-07T01:46:47;19.98;;;9.82;;
14933;SDS011;7560;51.364;12.384;2022-12-07T01:51:54;19.15;;;9.23;;
14933;SDS011;7560;51.364;12.384;2022-12-07T01:57:18;20.80;;;10.00;;
14933;SDS011;7560;51.364;12.384;2022-12-07T02:02:25;19.33;;;9.70;;
14933;SDS011;7560;51.364;12.384;2022-12-07T02:07:34;20.85;;;9.38;;
14933;SDS011;7560;51.364;12.384;2022-12-07T02:12:39;20.80;;;9.65;;
14933;SDS011;7560;51.364;12.384;2022-12-07T02:17:45;20.88;;;9.27;;
14933;SDS011;7560;51.364;12.384;2022-12-07T02:23:00;17.73;;;9.20;;
14933;SDS011;7560;51.364;12.384;2022-12-07T02:28:19;19.40;;;9.68;;
14933;SDS011;7560;51.364;12.384;2022-12-07T02:33:37;19.52;;;9.68;;
14933;SDS011;7560;51.364;12.384;2022-12-07T02:44:04;18.67;;;9.32;;
14933;SDS011;7560;51.364;12.384;2022-12-07T02:49:13;17.13;;;8.43;;
14933;SDS011;7560;51.364;12.384;2022-12-07T02:54:17;19.48;;;9.13;;
14933;SDS011;7560;51.364;12.384;2022-12-07T03:15:42;19.05;;;8.23;;
14933;SDS011;7560;51.364;12.384;2022-12-07T03:21:08;15.80;;;7.65;;
14933;SDS011;7560;51.364;12.384;2022-12-07T03:26:14;16.17;;;7.88;;
14933;SDS011;7560;51.364;12.384;2022-12-07T03:31:22;16.10;;;8.25;;
14933;SDS011;7560;51.364;12.384;2022-12-07T03:36:42;14.35;;;7.28;;
14933;SDS011;7560;51.364;12.384;2022-12-07T03:41:57;14.38;;;6.88;;
14933;SDS011;7560;51.364;12.384;2022-12-07T03:47:02;13.52;;;6.50;;
14933;SDS011;7560;51.364;12.384;2022-12-07T03:52:48;13.23;;;6.78;;
14933;SDS011;7560;51.364;12.384;2022-12-07T03:58:08;10.57;;;6.53;;
14933;SDS011;7560;51.364;12.384;2022-12-07T04:03:12;13.35;;;6.28;;
14933;SDS011;7560;51.364;12.384;2022-12-07T04:08:14;10.70;;;6.53;;
14933;SDS011;7560;51.364;12.384;2022-12-07T04:13:15;12.50;;;6.57;;
14933;SDS011;7560;51.364;12.384;2022-12-07T04:18:17;12.00;;;6.72;;
14933;SDS011;7560;51.364;12.384;2022-12-07T04:23:19;14.80;;;7.38;;
14933;SDS011;7560;51.364;12.384;2022-12-07T04:28:21;12.15;;;6.10;;
14933;SDS011;7560;51.364;12.384;2022-12-07T04:33:22;12.40;;;6.40;;
14933;SDS011;7560;51.364;12.384;2022-12-07T04:38:24;10.50;;;6.32;;
14933;SDS011;7560;51.364;12.384;2022-12-07T04:43:26;11.38;;;6.70;;
14933;SDS011;7560;51.364;12.384;2022-12-07T04:48:27;12.32;;;6.00;;
14933;SDS011;7560;51.364;12.384;2022-12-07T04:53:29;11.95;;;6.65;;
14933;SDS011;7560;51.364;12.384;2022-12-07T04:58:31;11.52;;;6.60;;
14933;SDS011;7560;51.364;12.384;2022-12-07T05:03:33;12.88;;;6.60;;
14933;SDS011;7560;51.364;12.384;2022-12-07T05:08:34;11.38;;;6.03;;
14933;SDS011;7560;51.364;12.384;2022-12-07T05:13:36;12.57;;;6.75;;
14933;SDS011;7560;51.364;12.384;2022-12-07T05:18:38;12.20;;;6.53;;
14933;SDS011;7560;51.364;12.384;2022-12-07T05:23:40;9.77;;;6.28;;
14933;SDS011;7560;51.364;12.384;2022-12-07T05:28:42;11.38;;;5.75;;
14933;SDS011;7560;51.364;12.384;2022-12-07T05:33:43;12.05;;;6.10;;
14933;SDS011;7560;51.364;12.384;2022-12-07T05:38:45;11.90;;;6.57;;
14933;SDS011;7560;51.364;12.384;2022-12-07T05:43:47;14.48;;;7.03;;
14933;SDS011;7560;51.364;12.384;2022-12-07T05:48:49;11.93;;;6.65;;
14933;SDS011;7560;51.364;12.384;2022-12-07T05:53:51;12.02;;;7.07;;
14933;SDS011;7560;51.364;12.384;2022-12-07T05:58:53;13.25;;;7.25;;
14933;SDS011;7560;51.364;12.384;2022-12-07T06:04:13;14.40;;;7.60;;
14933;SDS011;7560;51.364;12.384;2022-12-07T06:09:15;12.05;;;7.72;;
14933;SDS011;7560;51.364;12.384;2022-12-07T06:14:17;15.82;;;8.55;;
14933;SDS011;7560;51.364;12.384;2022-12-07T06:19:19;13.35;;;7.68;;
14933;SDS011;7560;51.364;12.384;2022-12-07T06:24:21;14.73;;;7.88;;
14933;SDS011;7560;51.364;12.384;2022-12-07T06:29:23;15.63;;;8.57;;
14933;SDS011;7560;51.364;12.384;2022-12-07T06:34:26;16.60;;;8.57;;
14933;SDS011;7560;51.364;12.384;2022-12-07T06:39:28;15.73;;;8.60;;
14933;SDS011;7560;51.364;12.384;2022-12-07T06:44:31;17.08;;;8.82;;
14933;SDS011;7560;51.364;12.384;2022-12-07T06:49:33;17.02;;;9.27;;
14933;SDS011;7560;51.364;12.384;2022-12-07T06:54:35;17.65;;;9.80;;
14933;SDS011;7560;51.364;12.384;2022-12-07T06:59:37;17.98;;;9.65;;
14933;SDS011;7560;51.364;12.384;2022-12-07T07:04:39;16.27;;;9.93;;
14933;SDS011;7560;51.364;12.384;2022-12-07T07:09:41;18.70;;;10.23;;
14933;SDS011;7560;51.364;12.384;2022-12-07T07:14:42;20.38;;;11.13;;
14933;SDS011;7560;51.364;12.384;2022-12-07T07:19:44;18.80;;;9.85;;
14933;SDS011;7560;51.364;12.384;2022-12-07T07:24:46;21.00;;;10.63;;
14933;SDS011;7560;51.364;12.384;2022-12-07T07:29:47;22.25;;;12.02;;
14933;SDS011;7560;51.364;12.384;2022-12-07T07:34:49;19.67;;;11.02;;
14933;SDS011;7560;51.364;12.384;2022-12-07T07:39:51;22.50;;;11.20;;
14933;SDS011;7560;51.364;12.384;2022-12-07T07:44:53;17.70;;;10.23;;
14933;SDS011;7560;51.364;12.384;2022-12-07T07:49:55;20.58;;;11.23;;
14933;SDS011;7560;51.364;12.384;2022-12-07T07:54:58;19.88;;;10.93;;
14933;SDS011;7560;51.364;12.384;2022-12-07T08:00:00;22.67;;;11.45;;
14933;SDS011;7560;51.364;12.384;2022-12-07T08:05:02;18.20;;;10.27;;
14933;SDS011;7560;51.364;12.384;2022-12-07T08:10:05;20.60;;;11.45;;
14933;SDS011;7560;51.364;12.384;2022-12-07T08:15:07;20.52;;;10.05;;
14933;SDS011;7560;51.364;12.384;2022-12-07T08:20:09;20.90;;;11.02;;
14933;SDS011;7560;51.364;12.384;2022-12-07T08:25:11;22.50;;;11.90;;
14933;SDS011;7560;51.364;12.384;2022-12-07T08:30:13;23.13;;;12.25;;
14933;SDS011;7560;51.364;12.384;2022-12-07T08:35:15;23.27;;;11.63;;
14933;SDS011;7560;51.364;12.384;2022-12-07T08:40:17;20.10;;;10.73;;
14933;SDS011;7560;51.364;12.384;2022-12-07T08:45:20;23.63;;;10.48;;
14933;SDS011;7560;51.364;12.384;2022-12-07T08:50:27;18.83;;;10.45;;
14933;SDS011;7560;51.364;12.384;2022-12-07T08:55:30;21.58;;;10.18;;
14933;SDS011;7560;51.364;12.384;2022-12-07T09:00:34;19.00;;;9.10;;
14933;SDS011;7560;51.364;12.384;2022-12-07T09:05:35;15.82;;;8.38;;
14933;SDS011;7560;51.364;12.384;2022-12-07T09:10:37;13.07;;;7.25;;
14933;SDS011;7560;51.364;12.384;2022-12-07T09:15:39;16.25;;;7.30;;
14933;SDS011;7560;51.364;12.384;2022-12-07T09:20:41;13.15;;;7.03;;
14933;SDS011;7560;51.364;12.384;2022-12-07T09:25:43;12.18;;;6.45;;
14933;SDS011;7560;51.364;12.384;2022-12-07T09:30:45;13.45;;;6.80;;
14933;SDS011;7560;51.364;12.384;2022-12-07T09:36:08;10.55;;;6.10;;
14933;SDS011;7560;51.364;12.384;2022-12-07T09:41:10;12.00;;;6.60;;
14933;SDS011;7560;51.364;12.384;2022-12-07T09:46:14;14.30;;;6.72;;
14933;SDS011;7560;51.364;12.384;2022-12-07T09:51:22;11.35;;;6.32;;
14933;SDS011;7560;51.364;12.384;2022-12-07T09:56:28;13.93;;;6.93;;
14933;SDS011;7560;51.364;12.384;2022-12-07T10:01:32;13.77;;;6.85;;
14933;SDS011;7560;51.364;12.384;2022-12-07T10:06:34;13.63;;;6.45;;
14933;SDS011;7560;51.364;12.384;2022-12-07T10:11:57;11.45;;;6.80;;
14933;SDS011;7560;51.364;12.384;2022-12-07T10:17:01;11.52;;;6.28;;
14933;SDS011;7560;51.364;12.384;2022-12-07T10:22:13;12.05;;;6.70;;
14933;SDS011;7560;51.364;12.384;2022-12-07T10:32:35;13.07;;;7.00;;
14933;SDS011;7560;51.364;12.384;2022-12-07T10:37:40;9.88;;;5.80;;
14933;SDS011;7560;51.364;12.384;2022-12-07T10:42:43;11.18;;;6.10;;
14933;SDS011;7560;51.364;12.384;2022-12-07T11:04:08;11.75;;;5.90;;
14933;SDS011;7560;51.364;12.384;2022-12-07T11:09:56;8.85;;;5.35;;
14933;SDS011;7560;51.364;12.384;2022-12-07T11:20:39;6.97;;;3.67;;
14933;SDS011;7560;51.364;12.384;2022-12-07T11:25:54;8.43;;;4.20;;
14933;SDS011;7560;51.364;12.384;2022-12-07T11:36:47;6.97;;;4.75;;
14933;SDS011;7560;51.364;12.384;2022-12-07T11:41:55;10.48;;;5.53;;
14933;SDS011;7560;51.364;12.384;2022-12-07T11:47:25;8.70;;;5.68;;
14933;SDS011;7560;51.364;12.384;2022-12-07T11:57:46;12.63;;;5.82;;
14933;SDS011;7560;51.364;12.384;2022-12-07T12:03:20;9.85;;;5.10;;
14933;SDS011;7560;51.364;12.384;2022-12-07T12:08:34;10.32;;;5.25;;
14933;SDS011;7560;51.364;12.384;2022-12-07T12:14:04;7.65;;;4.43;;
14933;SDS011;7560;51.364;12.384;2022-12-07T12:25:21;8.00;;;4.75;;
14933;SDS011;7560;51.364;12.384;2022-12-07T12:30:35;8.52;;;4.63;;
14933;SDS011;7560;51.364;12.384;2022-12-07T12:35:39;6.82;;;4.45;;
14933;SDS011;7560;51.364;12.384;2022-12-07T12:40:41;5.80;;;3.75;;
14933;SDS011;7560;51.364;12.384;2022-12-07T12:45:51;5.40;;;3.70;;
14933;SDS011;7560;51.364;12.384;2022-12-07T12:51:38;6.75;;;3.30;;
14933;SDS011;7560;51.364;12.384;2022-12-07T13:02:36;6.22;;;2.63;;
14933;SDS011;7560;51.364;12.384;2022-12-07T13:23:30;3.08;;;2.00;;
14933;SDS011;7560;51.364;12.384;2022-12-07T13:33:50;3.75;;;1.95;;
14933;SDS011;7560;51.364;12.384;2022-12-07T13:38:59;4.30;;;1.90;;
14933;SDS011;7560;51.364;12.384;2022-12-07T13:44:12;2.85;;;1.80;;
14933;SDS011;7560;51.364;12.384;2022-12-07T13:54:22;3.55;;;1.70;;
14933;SDS011;7560;51.364;12.384;2022-12-07T13:59:24;4.72;;;1.90;;
14933;SDS011;7560;51.364;12.384;2022-12-07T14:09:34;2.83;;;1.90;;
14933;SDS011;7560;51.364;12.384;2022-12-07T14:14:35;5.93;;;1.70;;
14933;SDS011;7560;51.364;12.384;2022-12-07T14:19:40;2.15;;;1.80;;
14933;SDS011;7560;51.364;12.384;2022-12-07T14:24:48;3.42;;;2.20;;
14933;SDS011;7560;51.364;12.384;2022-12-07T14:29:50;3.72;;;2.20;;
14933;SDS011;7560;51.364;12.384;2022-12-07T14:35:11;3.47;;;2.15;;
14933;SDS011;7560;51.364;12.384;2022-12-07T14:40:16;4.85;;;2.10;;
14933;SDS011;7560;51.364;12.384;2022-12-07T14:45:21;4.40;;;1.90;;
14933;SDS011;7560;51.364;12.384;2022-12-07T14:50:23;3.80;;;2.00;;
14933;SDS011;7560;51.364;12.384;2022-12-07T14:55:28;3.95;;;2.03;;
14933;SDS011;7560;51.364;12.384;2022-12-07T15:00:31;4.22;;;1.90;;
14933;SDS011;7560;51.364;12.384;2022-12-07T15:05:36;4.85;;;1.83;;
14933;SDS011;7560;51.364;12.384;2022-12-07T15:10:39;3.45;;;2.10;;
14933;SDS011;7560;51.364;12.384;2022-12-07T15:15:41;6.30;;;2.13;;
14933;SDS011;7560;51.364;12.384;2022-12-07T15:20:43;3.13;;;1.60;;
14933;SDS011;7560;51.364;12.384;2022-12-07T15:25:46;4.07;;;1.80;;
14933;SDS011;7560;51.364;12.384;2022-12-07T15:30:49;8.15;;;2.08;;
14933;SDS011;7560;51.364;12.384;2022-12-07T15:35:51;4.10;;;1.95;;
14933;SDS011;7560;51.364;12.384;2022-12-07T15:40:52;3.20;;;1.67;;
14933;SDS011;7560;51.364;12.384;2022-12-07T15:45:55;5.45;;;1.80;;
14933;SDS011;7560;51.364;12.384;2022-12-07T15:51:04;3.50;;;1.70;;
14933;SDS011;7560;51.364;12.384;2022-12-07T15:56:07;2.75;;;1.70;;
14933;SDS011;7560;51.364;12.384;2022-12-07T16:01:10;2.63;;;1.58;;
14933;SDS011;7560;51.364;12.384;2022-12-07T16:06:16;2.70;;;1.70;;
14933;SDS011;7560;51.364;12.384;2022-12-07T16:11:19;2.78;;;1.85;;
14933;SDS011;7560;51.364;12.384;2022-12-07T16:16:21;3.03;;;2.10;;
14933;SDS011;7560;51.364;12.384;2022-12-07T16:21:23;3.30;;;2.42;;
14933;SDS011;7560;51.364;12.384;2022-12-07T16:26:26;7.03;;;2.50;;
14933;SDS011;7560;51.364;12.384;2022-12-07T16:31:28;5.20;;;2.70;;
14933;SDS011;7560;51.364;12.384;2022-12-07T16:36:30;4.88;;;2.35;;
14933;SDS011;7560;51.364;12.384;2022-12-07T16:41:52;7.20;;;2.80;;
14933;SDS011;7560;51.364;12.384;2022-12-07T16:46:54;4.47;;;2.92;;
14933;SDS011;7560;51.364;12.384;2022-12-07T16:51:56;5.63;;;3.30;;
14933;SDS011;7560;51.364;12.384;2022-12-07T16:57:18;5.03;;;3.17;;
14933;SDS011;7560;51.364;12.384;2022-12-07T17:02:24;5.03;;;3.40;;
14933;SDS011;7560;51.364;12.384;2022-12-07T17:07:25;9.63;;;4.25;;
14933;SDS011;7560;51.364;12.384;2022-12-07T17:12:28;8.88;;;4.45;;
14933;SDS011;7560;51.364;12.384;2022-12-07T17:17:29;9.52;;;5.22;;
14933;SDS011;7560;51.364;12.384;2022-12-07T17:22:31;6.75;;;4.20;;
14933;SDS011;7560;51.364;12.384;2022-12-07T17:27:33;7.18;;;3.88;;
14933;SDS011;7560;51.364;12.384;2022-12-07T17:32:35;7.60;;;3.75;;
14933;SDS011;7560;51.364;12.384;2022-12-07T17:37:37;7.78;;;4.00;;
14933;SDS011;7560;51.364;12.384;2022-12-07T17:42:39;5.00;;;2.90;;
14933;SDS011;7560;51.364;12.384;2022-12-07T17:47:41;6.40;;;3.17;;
14933;SDS011;7560;51.364;12.384;2022-12-07T17:52:43;8.00;;;3.28;;
14933;SDS011;7560;51.364;12.384;2022-12-07T17:58:03;8.02;;;3.33;;
14933;SDS011;7560;51.364;12.384;2022-12-07T18:03:05;6.75;;;3.40;;
14933;SDS011;7560;51.364;12.384;2022-12-07T18:08:09;9.73;;;3.65;;
14933;SDS011;7560;51.364;12.384;2022-12-07T18:13:11;6.30;;;3.72;;
14933;SDS011;7560;51.364;12.384;2022-12-07T18:18:31;6.00;;;3.58;;
14933;SDS011;7560;51.364;12.384;2022-12-07T18:23:33;8.63;;;4.18;;
14933;SDS011;7560;51.364;12.384;2022-12-07T18:28:35;8.88;;;4.00;;
14933;SDS011;7560;51.364;12.384;2022-12-07T18:33:37;9.70;;;3.92;;
14933;SDS011;7560;51.364;12.384;2022-12-07T18:38:40;5.15;;;3.10;;
14933;SDS011;7560;51.364;12.384;2022-12-07T18:43:42;7.93;;;4.00;;
14933;SDS011;7560;51.364;12.384;2022-12-07T18:48:44;4.80;;;3.40;;
14933;SDS011;7560;51.364;12.384;2022-12-07T18:53:46;6.30;;;3.75;;
14933;SDS011;7560;51.364;12.384;2022-12-07T18:58:49;7.00;;;3.75;;
14933;SDS011;7560;51.364;12.384;2022-12-07T19:04:11;8.27;;;3.78;;
14933;SDS011;7560;51.364;12.384;2022-12-07T19:09:13;7.38;;;3.85;;
14933;SDS011;7560;51.364;12.384;2022-12-07T19:14:26;7.15;;;3.25;;
14933;SDS011;7560;51.364;12.384;2022-12-07T19:19:30;8.10;;;3.70;;
14933;SDS011;7560;51.364;12.384;2022-12-07T19:24:34;8.30;;;4.20;;
14933;SDS011;7560;51.364;12.384;2022-12-07T19:29:36;5.47;;;3.50;;
14933;SDS011;7560;51.364;12.384;2022-12-07T19:34:38;7.18;;;3.70;;
14933;SDS011;7560;51.364;12.384;2022-12-07T19:39:42;5.90;;;3.85;;
14933;SDS011;7560;51.364;12.384;2022-12-07T19:44:44;5.32;;;3.72;;
14933;SDS011;7560;51.364;12.384;2022-12-07T19:49:46;7.63;;;4.00;;
14933;SDS011;7560;51.364;12.384;2022-12-07T19:54:47;6.85;;;4.00;;
14933;SDS011;7560;51.364;12.384;2022-12-07T19:59:49;7.13;;;4.78;;
14933;SDS011;7560;51.364;12.384;2022-12-07T20:04:51;8.13;;;4.32;;
14933;SDS011;7560;51.364;12.384;2022-12-07T20:09:52;7.90;;;4.13;;
14933;SDS011;7560;51.364;12.384;2022-12-07T20:14:54;6.22;;;4.05;;
14933;SDS011;7560;51.364;12.384;2022-12-07T20:19:56;7.00;;;4.22;;
14933;SDS011;7560;51.364;12.384;2022-12-07T20:24:57;4.88;;;3.83;;
14933;SDS011;7560;51.364;12.384;2022-12-07T20:29:59;9.63;;;4.35;;
14933;SDS011;7560;51.364;12.384;2022-12-07T20:35:01;6.97;;;4.35;;
14933;SDS011;7560;51.364;12.384;2022-12-07T20:40:03;9.40;;;3.95;;
14933;SDS011;7560;51.364;12.384;2022-12-07T20:45:06;7.57;;;3.75;;
14933;SDS011;7560;51.364;12.384;2022-12-07T20:50:10;9.05;;;4.45;;
14933;SDS011;7560;51.364;12.384;2022-12-07T20:55:12;7.05;;;4.28;;
14933;SDS011;7560;51.364;12.384;2022-12-07T21:00:14;7.40;;;4.40;;
14933;SDS011;7560;51.364;12.384;2022-12-07T21:05:16;5.85;;;4.13;;
14933;SDS011;7560;51.364;12.384;2022-12-07T21:10:18;8.85;;;4.00;;
14933;SDS011;7560;51.364;12.384;2022-12-07T21:15:20;6.70;;;4.15;;
14933;SDS011;7560;51.364;12.384;2022-12-07T21:20:22;7.65;;;4.43;;
14933;SDS011;7560;51.364;12.384;2022-12-07T21:25:23;11.35;;;4.57;;
14933;SDS011;7560;51.364;12.384;2022-12-07T21:30:25;7.07;;;4.40;;
14933;SDS011;7560;51.364;12.384;2022-12-07T21:35:37;7.63;;;4.10;;
14933;SDS011;7560;51.364;12.384;2022-12-07T21:40:39;8.40;;;4.28;;
14933;SDS011;7560;51.364;12.384;2022-12-07T21:45:40;7.90;;;4.18;;
14933;SDS011;7560;51.364;12.384;2022-12-07T21:50:42;7.35;;;4.10;;
14933;SDS011;7560;51.364;12.384;2022-12-07T21:55:44;13.48;;;4.20;;
14933;SDS011;7560;51.364;12.384;2022-12-07T22:00:46;8.90;;;4.28;;
14933;SDS011;7560;51.364;12.384;2022-12-07T22:05:48;9.35;;;4.35;;
14933;SDS011;7560;51.364;12.384;2022-12-07T22:10:52;8.27;;;4.07;;
14933;SDS011;7560;51.364;12.384;2022-12-07T22:15:53;7.25;;;4.03;;
14933;SDS011;7560;51.364;12.384;2022-12-07T22:20:58;4.97;;;3.70;;
14933;SDS011;7560;51.364;12.384;2022-12-07T22:26:04;8.23;;;4.50;;
14933;SDS011;7560;51.364;12.384;2022-12-07T22:31:07;9.32;;;3.92;;
14933;SDS011;7560;51.364;12.384;2022-12-07T22:36:11;8.48;;;3.63;;
14933;SDS011;7560;51.364;12.384;2022-12-07T22:41:24;7.30;;;4.25;;
14933;SDS011;7560;51.364;12.384;2022-12-07T22:46:27;6.88;;;3.80;;
14933;SDS011;7560;51.364;12.384;2022-12-07T22:51:30;8.63;;;3.97;;
14933;SDS011;7560;51.364;12.384;2022-12-07T22:56:34;6.07;;;3.72;;
14933;SDS011;7560;51.364;12.384;2022-12-07T23:01:37;9.13;;;4.63;;
14933;SDS011;7560;51.364;12.384;2022-12-07T23:06:39;9.57;;;4.35;;
14933;SDS011;7560;51.364;12.384;2022-12-07T23:11:41;9.02;;;4.18;;
14933;SDS011;7560;51.364;12.384;2022-12-07T23:17:02;8.13;;;4.38;;
14933;SDS011;7560;51.364;12.384;2022-12-07T23:22:04;7.43;;;4.38;;
14933;SDS011;7560;51.364;12.384;2022-12-07T23:27:05;7.65;;;4.10;;
14933;SDS011;7560;51.364;12.384;2022-12-07T23:32:07;9.55;;;4.32;;
14933;SDS011;7560;51.364;12.384;2022-12-07T23:37:09;6.90;;;4.00;;
14933;SDS011;7560;51.364;12.384;2022-12-07T23:42:11;7.13;;;4.07;;
14933;SDS011;7560;51.364;12.384;2022-12-07T23:47:12;7.63;;;4.30;;
14933;SDS011;7560;51.364;12.384;2022-12-07T23:52:14;8.60;;;4.20;;
14933;SDS011;7560;51.364;12.384;2022-12-07T23:57:16;6.40;;;4.13;;
